sensor_id;sensor_type;location;lat;lon;timestamp;pressure;altitude;pressure_sealevel;temperature;humidity
41866;BME280;27539;43.222;27.558;2022-09-16T00:01:19;99607.31;;;22.47;100.00
41866;BME280;27539;43.222;27.558;2022-09-16T00:03:46;99565.75;;;22.38;100.00
41866;BME280;27539;43.222;27.558;2022-09-16T00:06:20;99586.94;;;22.65;100.00
41866;BME280;27539;43.222;27.558;2022-09-16T00:08:47;99558.19;;;22.30;100.00
41866;BME280;27539;43.222;27.558;2022-09-16T00:11:13;99605.34;;;22.47;100.00
41866;BME280;27539;43.222;27.558;2022-09-16T00:13:39;99587.72;;;22.41;100.00
41866;BME280;27539;43.222;27.558;2022-09-16T00:16:20;99594.47;;;22.16;100.00
41866;BME280;27539;43.222;27.558;2022-09-16T00:18:45;99577.38;;;21.91;100.00
41866;BME280;27539;43.222;27.558;2022-09-16T00:21:11;99590.75;;;22.03;100.00
41866;BME280;27539;43.222;27.558;2022-09-16T00:23:37;99586.88;;;22.08;100.00
41866;BME280;27539;43.222;27.558;2022-09-16T00:26:03;99591.69;;;22.28;100.00
41866;BME280;27539;43.222;27.558;2022-09-16T00:28:29;99560.75;;;22.23;100.00
41866;BME280;27539;43.222;27.558;2022-09-16T00:31:02;99585.69;;;22.42;100.00
41866;BME280;27539;43.222;27.558;2022-09-16T00:33:27;99596.84;;;22.59;100.00
41866;BME280;27539;43.222;27.558;2022-09-16T00:36:08;99584.09;;;22.65;100.00
41866;BME280;27539;43.222;27.558;2022-09-16T00:38:34;99592.56;;;22.41;100.00
41866;BME280;27539;43.222;27.558;2022-09-16T00:40:59;99584.06;;;22.08;100.00
41866;BME280;27539;43.222;27.558;2022-09-16T00:43:25;99590.63;;;21.99;100.00
41866;BME280;27539;43.222;27.558;2022-09-16T00:46:08;99582.00;;;21.96;100.00
41866;BME280;27539;43.222;27.558;2022-09-16T00:48:34;99580.19;;;21.91;100.00
41866;BME280;27539;43.222;27.558;2022-09-16T00:51:02;99545.50;;;21.82;100.00
41866;BME280;27539;43.222;27.558;2022-09-16T00:53:40;99560.38;;;21.91;100.00
41866;BME280;27539;43.222;27.558;2022-09-16T00:56:09;99538.97;;;21.82;100.00
41866;BME280;27539;43.222;27.558;2022-09-16T00:58:44;99559.31;;;21.63;100.00
41866;BME280;27539;43.222;27.558;2022-09-16T01:01:11;99563.38;;;21.74;100.00
41866;BME280;27539;43.222;27.558;2022-09-16T01:03:43;99566.28;;;21.65;100.00
41866;BME280;27539;43.222;27.558;2022-09-16T01:06:10;99565.97;;;21.79;100.00
41866;BME280;27539;43.222;27.558;2022-09-16T01:08:39;99570.50;;;21.80;100.00
41866;BME280;27539;43.222;27.558;2022-09-16T01:11:06;99578.19;;;21.92;100.00
41866;BME280;27539;43.222;27.558;2022-09-16T01:13:31;99572.34;;;21.97;100.00
41866;BME280;27539;43.222;27.558;2022-09-16T01:16:07;99566.75;;;21.46;100.00
41866;BME280;27539;43.222;27.558;2022-09-16T01:21:42;99568.69;;;21.75;100.00
41866;BME280;27539;43.222;27.558;2022-09-16T01:27:17;99572.53;;;21.92;100.00
41866;BME280;27539;43.222;27.558;2022-09-16T01:36:02;99577.81;;;21.60;100.00
41866;BME280;27539;43.222;27.558;2022-09-16T01:51:56;99568.03;;;21.28;100.00
41866;BME280;27539;43.222;27.558;2022-09-16T01:54:32;99538.47;;;20.96;100.00
41866;BME280;27539;43.222;27.558;2022-09-16T01:57:15;99526.09;;;20.79;100.00
41866;BME280;27539;43.222;27.558;2022-09-16T02:00:09;99575.25;;;21.17;100.00
41866;BME280;27539;43.222;27.558;2022-09-16T02:05:31;99571.56;;;20.95;100.00
41866;BME280;27539;43.222;27.558;2022-09-16T02:08:21;99569.34;;;21.09;100.00
41866;BME280;27539;43.222;27.558;2022-09-16T02:10:54;99574.41;;;20.95;100.00
41866;BME280;27539;43.222;27.558;2022-09-16T02:13:32;99569.38;;;20.54;100.00
41866;BME280;27539;43.222;27.558;2022-09-16T02:16:48;99559.25;;;20.61;100.00
41866;BME280;27539;43.222;27.558;2022-09-16T02:18:54;99563.69;;;20.71;100.00
41866;BME280;27539;43.222;27.558;2022-09-16T02:21:24;99551.81;;;20.57;100.00
41866;BME280;27539;43.222;27.558;2022-09-16T02:23:54;99557.63;;;20.52;100.00
41866;BME280;27539;43.222;27.558;2022-09-16T02:29:12;99573.22;;;20.58;100.00
41866;BME280;27539;43.222;27.558;2022-09-16T02:31:42;99545.53;;;20.34;100.00
41866;BME280;27539;43.222;27.558;2022-09-16T02:34:14;99568.25;;;20.46;100.00
41866;BME280;27539;43.222;27.558;2022-09-16T02:36:44;99581.88;;;20.44;100.00
41866;BME280;27539;43.222;27.558;2022-09-16T02:39:15;99547.75;;;20.19;100.00
41866;BME280;27539;43.222;27.558;2022-09-16T02:41:43;99553.41;;;20.11;100.00
41866;BME280;27539;43.222;27.558;2022-09-16T02:44:09;99586.09;;;20.29;100.00
41866;BME280;27539;43.222;27.558;2022-09-16T02:49:59;99583.03;;;20.52;100.00
41866;BME280;27539;43.222;27.558;2022-09-16T02:57:33;99557.19;;;20.32;100.00
41866;BME280;27539;43.222;27.558;2022-09-16T02:59:59;99561.00;;;20.27;100.00
41866;BME280;27539;43.222;27.558;2022-09-16T03:02:24;99558.13;;;20.45;100.00
41866;BME280;27539;43.222;27.558;2022-09-16T03:04:50;99567.09;;;20.56;100.00
41866;BME280;27539;43.222;27.558;2022-09-16T03:07:15;99572.38;;;20.66;100.00
41866;BME280;27539;43.222;27.558;2022-09-16T03:09:44;99573.94;;;20.28;100.00
41866;BME280;27539;43.222;27.558;2022-09-16T03:20:47;99588.13;;;20.02;100.00
41866;BME280;27539;43.222;27.558;2022-09-16T03:23:41;99585.50;;;19.97;100.00
41866;BME280;27539;43.222;27.558;2022-09-16T03:29:29;99573.56;;;19.92;100.00
41866;BME280;27539;43.222;27.558;2022-09-16T03:34:54;99524.41;;;19.49;100.00
41866;BME280;27539;43.222;27.558;2022-09-16T03:37:26;99561.41;;;19.65;100.00
41866;BME280;27539;43.222;27.558;2022-09-16T03:39:57;99559.75;;;19.64;100.00
41866;BME280;27539;43.222;27.558;2022-09-16T03:42:24;99546.84;;;19.72;100.00
41866;BME280;27539;43.222;27.558;2022-09-16T03:44:50;99568.88;;;19.96;100.00
41866;BME280;27539;43.222;27.558;2022-09-16T03:47:16;99579.66;;;20.02;100.00
41866;BME280;27539;43.222;27.558;2022-09-16T03:49:41;99557.97;;;19.77;100.00
41866;BME280;27539;43.222;27.558;2022-09-16T03:52:07;99511.78;;;19.38;100.00
41866;BME280;27539;43.222;27.558;2022-09-16T03:54:34;99549.13;;;19.61;100.00
41866;BME280;27539;43.222;27.558;2022-09-16T03:57:00;99535.38;;;19.42;100.00
41866;BME280;27539;43.222;27.558;2022-09-16T03:59:26;99544.50;;;19.56;100.00
41866;BME280;27539;43.222;27.558;2022-09-16T04:01:52;99570.06;;;19.77;100.00
41866;BME280;27539;43.222;27.558;2022-09-16T04:04:18;99504.97;;;19.13;100.00
41866;BME280;27539;43.222;27.558;2022-09-16T04:06:44;99490.34;;;18.93;100.00
41866;BME280;27539;43.222;27.558;2022-09-16T04:09:10;99574.66;;;19.30;100.00
41866;BME280;27539;43.222;27.558;2022-09-16T04:11:37;99544.78;;;19.20;100.00
41866;BME280;27539;43.222;27.558;2022-09-16T04:49:02;99531.16;;;21.45;100.00
41866;BME280;27539;43.222;27.558;2022-09-16T04:51:28;99580.50;;;22.11;100.00
41866;BME280;27539;43.222;27.558;2022-09-16T04:53:55;99580.69;;;22.84;99.27
41866;BME280;27539;43.222;27.558;2022-09-16T04:56:26;99592.81;;;23.71;94.02
41866;BME280;27539;43.222;27.558;2022-09-16T04:58:53;99589.94;;;24.40;89.10
41866;BME280;27539;43.222;27.558;2022-09-16T05:01:29;99580.25;;;24.56;87.16
41866;BME280;27539;43.222;27.558;2022-09-16T05:03:57;99579.16;;;24.93;82.97
41866;BME280;27539;43.222;27.558;2022-09-16T05:06:25;99599.72;;;25.34;79.68
41866;BME280;27539;43.222;27.558;2022-09-16T05:08:53;99605.69;;;25.99;74.16
41866;BME280;27539;43.222;27.558;2022-09-16T05:11:24;99609.50;;;26.26;72.21
41866;BME280;27539;43.222;27.558;2022-09-16T05:13:50;99600.53;;;26.47;71.21
41866;BME280;27539;43.222;27.558;2022-09-16T05:16:21;99613.53;;;26.64;69.59
41866;BME280;27539;43.222;27.558;2022-09-16T05:18:47;99619.38;;;26.71;72.70
41866;BME280;27539;43.222;27.558;2022-09-16T05:21:19;99592.38;;;26.46;81.05
41866;BME280;27539;43.222;27.558;2022-09-16T05:23:46;99578.31;;;25.95;84.39
41866;BME280;27539;43.222;27.558;2022-09-16T05:26:23;99611.44;;;26.03;87.14
41866;BME280;27539;43.222;27.558;2022-09-16T05:28:49;99594.78;;;25.85;88.14
41866;BME280;27539;43.222;27.558;2022-09-16T05:31:23;99622.25;;;25.94;91.68
41866;BME280;27539;43.222;27.558;2022-09-16T05:34:00;99615.00;;;25.80;90.94
41866;BME280;27539;43.222;27.558;2022-09-16T05:36:28;99631.09;;;25.73;91.46
41866;BME280;27539;43.222;27.558;2022-09-16T05:38:54;99623.28;;;25.85;91.52
41866;BME280;27539;43.222;27.558;2022-09-16T05:41:21;99624.19;;;25.90;92.73
41866;BME280;27539;43.222;27.558;2022-09-16T05:43:46;99619.72;;;25.89;94.96
41866;BME280;27539;43.222;27.558;2022-09-16T05:46:17;99590.41;;;25.72;94.63
41866;BME280;27539;43.222;27.558;2022-09-16T05:48:44;99572.41;;;25.68;95.64
41866;BME280;27539;43.222;27.558;2022-09-16T05:51:13;99612.03;;;25.93;97.20
41866;BME280;27539;43.222;27.558;2022-09-16T05:53:39;99627.13;;;26.13;95.91
41866;BME280;27539;43.222;27.558;2022-09-16T05:56:06;99618.66;;;26.16;97.15
41866;BME280;27539;43.222;27.558;2022-09-16T05:58:36;99595.66;;;26.48;79.61
41866;BME280;27539;43.222;27.558;2022-09-16T06:01:10;99624.53;;;27.35;67.35
41866;BME280;27539;43.222;27.558;2022-09-16T06:03:37;99632.28;;;27.61;65.93
41866;BME280;27539;43.222;27.558;2022-09-16T06:06:30;99620.38;;;27.82;65.22
41866;BME280;27539;43.222;27.558;2022-09-16T06:09:02;99623.16;;;28.09;62.83
41866;BME280;27539;43.222;27.558;2022-09-16T06:11:28;99596.69;;;28.12;62.66
41866;BME280;27539;43.222;27.558;2022-09-16T06:13:56;99609.78;;;28.47;61.22
41866;BME280;27539;43.222;27.558;2022-09-16T06:16:23;99619.72;;;28.60;57.57
41866;BME280;27539;43.222;27.558;2022-09-16T06:18:53;99581.75;;;28.67;56.24
41866;BME280;27539;43.222;27.558;2022-09-16T06:21:20;99621.31;;;28.98;54.64
41866;BME280;27539;43.222;27.558;2022-09-16T06:23:46;99615.59;;;28.98;53.41
41866;BME280;27539;43.222;27.558;2022-09-16T06:26:14;99617.66;;;29.01;53.89
41866;BME280;27539;43.222;27.558;2022-09-16T06:28:40;99625.44;;;29.01;53.25
41866;BME280;27539;43.222;27.558;2022-09-16T06:31:14;99625.97;;;29.10;53.86
41866;BME280;27539;43.222;27.558;2022-09-16T06:33:40;99635.50;;;29.25;54.10
41866;BME280;27539;43.222;27.558;2022-09-16T06:36:14;99630.72;;;29.43;52.09
41866;BME280;27539;43.222;27.558;2022-09-16T06:38:43;99615.22;;;29.51;50.85
41866;BME280;27539;43.222;27.558;2022-09-16T06:41:10;99621.13;;;29.73;50.95
41866;BME280;27539;43.222;27.558;2022-09-16T06:43:36;99636.31;;;29.77;49.85
41866;BME280;27539;43.222;27.558;2022-09-16T06:46:07;99625.16;;;29.65;50.22
41866;BME280;27539;43.222;27.558;2022-09-16T06:48:41;99631.75;;;29.69;50.06
41866;BME280;27539;43.222;27.558;2022-09-16T06:51:09;99642.06;;;29.81;52.06
41866;BME280;27539;43.222;27.558;2022-09-16T06:53:35;99642.06;;;29.81;50.42
41866;BME280;27539;43.222;27.558;2022-09-16T06:56:03;99607.63;;;29.74;50.54
41866;BME280;27539;43.222;27.558;2022-09-16T06:58:31;99617.97;;;29.96;50.52
41866;BME280;27539;43.222;27.558;2022-09-16T07:00:58;99630.72;;;30.06;49.93
41866;BME280;27539;43.222;27.558;2022-09-16T07:03:23;99618.16;;;30.25;51.90
41866;BME280;27539;43.222;27.558;2022-09-16T07:05:59;99644.84;;;30.43;49.41
41866;BME280;27539;43.222;27.558;2022-09-16T07:08:32;99642.81;;;30.54;48.64
41866;BME280;27539;43.222;27.558;2022-09-16T07:11:03;99649.78;;;30.46;47.72
41866;BME280;27539;43.222;27.558;2022-09-16T07:13:29;99651.78;;;30.39;48.41
41866;BME280;27539;43.222;27.558;2022-09-16T07:16:06;99647.22;;;30.27;47.98
41866;BME280;27539;43.222;27.558;2022-09-16T07:18:32;99640.34;;;30.46;49.06
41866;BME280;27539;43.222;27.558;2022-09-16T07:21:01;99652.66;;;30.46;49.26
41866;BME280;27539;43.222;27.558;2022-09-16T07:23:31;99620.25;;;30.46;49.08
41866;BME280;27539;43.222;27.558;2022-09-16T07:26:14;99635.47;;;30.61;48.79
41866;BME280;27539;43.222;27.558;2022-09-16T07:28:42;99643.69;;;30.66;48.60
41866;BME280;27539;43.222;27.558;2022-09-16T07:31:13;99630.94;;;30.52;47.50
41866;BME280;27539;43.222;27.558;2022-09-16T07:33:41;99629.72;;;30.57;47.52
41866;BME280;27539;43.222;27.558;2022-09-16T07:36:09;99587.50;;;30.57;48.10
41866;BME280;27539;43.222;27.558;2022-09-16T07:38:35;99622.03;;;31.08;46.63
41866;BME280;27539;43.222;27.558;2022-09-16T07:43:30;99588.78;;;31.17;45.48
41866;BME280;27539;43.222;27.558;2022-09-16T07:45:57;99617.09;;;31.37;45.84
41866;BME280;27539;43.222;27.558;2022-09-16T07:48:22;99633.13;;;31.38;46.32
41866;BME280;27539;43.222;27.558;2022-09-16T07:50:56;99629.88;;;31.43;46.42
41866;BME280;27539;43.222;27.558;2022-09-16T07:53:22;99626.16;;;31.28;48.09
41866;BME280;27539;43.222;27.558;2022-09-16T07:55:48;99630.66;;;31.33;46.73
41866;BME280;27539;43.222;27.558;2022-09-16T07:58:13;99626.97;;;31.47;47.00
41866;BME280;27539;43.222;27.558;2022-09-16T08:00:39;99628.59;;;31.62;46.49
41866;BME280;27539;43.222;27.558;2022-09-16T08:03:04;99623.69;;;31.55;46.36
41866;BME280;27539;43.222;27.558;2022-09-16T08:05:30;99627.78;;;31.58;45.81
41866;BME280;27539;43.222;27.558;2022-09-16T08:07:56;99638.47;;;31.47;45.57
41866;BME280;27539;43.222;27.558;2022-09-16T08:10:21;99604.78;;;31.47;45.03
41866;BME280;27539;43.222;27.558;2022-09-16T08:12:47;99627.78;;;31.54;44.53
41866;BME280;27539;43.222;27.558;2022-09-16T08:15:12;99627.38;;;31.70;44.43
41866;BME280;27539;43.222;27.558;2022-09-16T08:17:38;99622.38;;;31.85;44.50
41866;BME280;27539;43.222;27.558;2022-09-16T08:20:04;99644.59;;;31.95;42.62
41866;BME280;27539;43.222;27.558;2022-09-16T08:22:33;99623.22;;;31.82;42.78
41866;BME280;27539;43.222;27.558;2022-09-16T08:24:59;99636.34;;;31.97;42.52
41866;BME280;27539;43.222;27.558;2022-09-16T08:27:24;99629.75;;;32.04;42.20
41866;BME280;27539;43.222;27.558;2022-09-16T08:29:50;99639.63;;;32.03;42.31
41866;BME280;27539;43.222;27.558;2022-09-16T08:32:15;99643.69;;;32.13;42.45
41866;BME280;27539;43.222;27.558;2022-09-16T08:34:41;99619.50;;;31.96;41.97
41866;BME280;27539;43.222;27.558;2022-09-16T08:37:06;99603.03;;;32.03;42.28
41866;BME280;27539;43.222;27.558;2022-09-16T08:39:32;99589.06;;;32.02;42.13
41866;BME280;27539;43.222;27.558;2022-09-16T08:50:20;99614.78;;;32.41;41.91
41866;BME280;27539;43.222;27.558;2022-09-16T08:52:48;99613.44;;;32.67;41.64
41866;BME280;27539;43.222;27.558;2022-09-16T08:55:24;99616.63;;;32.80;40.97
41866;BME280;27539;43.222;27.558;2022-09-16T08:58:03;99587.19;;;32.58;40.61
41866;BME280;27539;43.222;27.558;2022-09-16T09:00:31;99615.03;;;32.72;40.97
41866;BME280;27539;43.222;27.558;2022-09-16T09:03:37;99606.44;;;32.68;41.36
41866;BME280;27539;43.222;27.558;2022-09-16T09:11:48;99616.00;;;32.40;43.19
41866;BME280;27539;43.222;27.558;2022-09-16T09:25:21;99614.59;;;32.81;43.81
41866;BME280;27539;43.222;27.558;2022-09-16T09:33:50;99607.94;;;32.14;44.59
41866;BME280;27539;43.222;27.558;2022-09-16T09:47:11;99604.34;;;32.76;42.77
41866;BME280;27539;43.222;27.558;2022-09-16T09:49:42;99596.47;;;32.80;42.94
41866;BME280;27539;43.222;27.558;2022-09-16T09:52:22;99633.00;;;32.90;43.37
41866;BME280;27539;43.222;27.558;2022-09-16T09:54:50;99617.72;;;33.04;42.68
41866;BME280;27539;43.222;27.558;2022-09-16T09:57:34;99619.34;;;33.05;42.08
41866;BME280;27539;43.222;27.558;2022-09-16T10:02:38;99579.31;;;33.18;41.99
41866;BME280;27539;43.222;27.558;2022-09-16T10:05:05;99573.81;;;33.34;41.90
41866;BME280;27539;43.222;27.558;2022-09-16T10:07:35;99602.13;;;33.47;41.51
41866;BME280;27539;43.222;27.558;2022-09-16T10:10:10;99610.28;;;33.55;41.65
41866;BME280;27539;43.222;27.558;2022-09-16T10:12:37;99611.13;;;33.52;40.04
41866;BME280;27539;43.222;27.558;2022-09-16T10:15:03;99603.72;;;33.51;40.55
41866;BME280;27539;43.222;27.558;2022-09-16T10:17:30;99607.06;;;33.46;40.23
41866;BME280;27539;43.222;27.558;2022-09-16T10:20:05;99568.44;;;33.37;40.29
41866;BME280;27539;43.222;27.558;2022-09-16T10:22:54;99566.38;;;33.37;40.61
41866;BME280;27539;43.222;27.558;2022-09-16T10:25:23;99591.72;;;33.60;40.34
41866;BME280;27539;43.222;27.558;2022-09-16T10:27:58;99574.91;;;33.48;40.28
41866;BME280;27539;43.222;27.558;2022-09-16T10:30:47;99583.22;;;33.42;40.76
41866;BME280;27539;43.222;27.558;2022-09-16T10:33:16;99586.22;;;33.31;40.76
41866;BME280;27539;43.222;27.558;2022-09-16T10:35:56;99574.97;;;33.41;40.19
41866;BME280;27539;43.222;27.558;2022-09-16T10:38:40;99566.31;;;33.44;39.82
41866;BME280;27539;43.222;27.558;2022-09-16T10:43:52;99583.28;;;34.14;38.41
41866;BME280;27539;43.222;27.558;2022-09-16T10:46:18;99565.19;;;34.10;38.33
41866;BME280;27539;43.222;27.558;2022-09-16T10:48:44;99588.28;;;34.07;37.56
41866;BME280;27539;43.222;27.558;2022-09-16T10:51:26;99564.59;;;33.88;37.80
41866;BME280;27539;43.222;27.558;2022-09-16T10:54:00;99587.00;;;33.77;38.27
41866;BME280;27539;43.222;27.558;2022-09-16T10:56:47;99565.75;;;33.60;38.03
41866;BME280;27539;43.222;27.558;2022-09-16T10:59:13;99556.63;;;33.65;38.82
41866;BME280;27539;43.222;27.558;2022-09-16T11:04:50;99592.47;;;34.02;38.34
41866;BME280;27539;43.222;27.558;2022-09-16T11:26:45;99566.00;;;34.11;37.61
41866;BME280;27539;43.222;27.558;2022-09-16T11:35:21;99542.41;;;34.47;36.92
41866;BME280;27539;43.222;27.558;2022-09-16T11:46:06;99564.44;;;34.33;37.66
41866;BME280;27539;43.222;27.558;2022-09-16T11:51:36;99557.91;;;34.60;37.96
41866;BME280;27539;43.222;27.558;2022-09-16T11:57:07;99539.44;;;34.23;37.45
41866;BME280;27539;43.222;27.558;2022-09-16T11:59:47;99541.91;;;34.25;37.30
41866;BME280;27539;43.222;27.558;2022-09-16T12:02:29;99547.50;;;34.05;38.33
41866;BME280;27539;43.222;27.558;2022-09-16T12:05:20;99549.38;;;34.22;37.92
41866;BME280;27539;43.222;27.558;2022-09-16T12:08:00;99533.88;;;34.09;38.07
41866;BME280;27539;43.222;27.558;2022-09-16T12:10:47;99512.72;;;34.19;37.57
41866;BME280;27539;43.222;27.558;2022-09-16T12:15:52;99549.25;;;34.60;38.25
41866;BME280;27539;43.222;27.558;2022-09-16T12:21:24;99510.72;;;34.70;36.86
41866;BME280;27539;43.222;27.558;2022-09-16T12:23:58;99540.84;;;34.96;36.83
41866;BME280;27539;43.222;27.558;2022-09-16T12:26:43;99504.31;;;34.28;36.84
41866;BME280;27539;43.222;27.558;2022-09-16T12:30:03;99529.13;;;34.53;37.40
41866;BME280;27539;43.222;27.558;2022-09-16T12:35:36;99525.00;;;34.54;37.42
41866;BME280;27539;43.222;27.558;2022-09-16T12:38:04;99494.53;;;34.49;36.83
41866;BME280;27539;43.222;27.558;2022-09-16T12:40:47;99528.84;;;34.71;37.08
41866;BME280;27539;43.222;27.558;2022-09-16T13:03:21;99490.88;;;34.18;38.04
41866;BME280;27539;43.222;27.558;2022-09-16T13:05:50;99481.41;;;34.17;37.50
41866;BME280;27539;43.222;27.558;2022-09-16T13:08:28;99496.16;;;34.50;37.32
41866;BME280;27539;43.222;27.558;2022-09-16T13:11:06;99462.91;;;34.38;36.99
41866;BME280;27539;43.222;27.558;2022-09-16T13:13:39;99502.88;;;34.71;37.12
41866;BME280;27539;43.222;27.558;2022-09-16T13:16:06;99474.84;;;34.40;36.88
41866;BME280;27539;43.222;27.558;2022-09-16T13:18:45;99495.06;;;34.40;37.47
41866;BME280;27539;43.222;27.558;2022-09-16T13:21:28;99492.38;;;33.95;37.81
41866;BME280;27539;43.222;27.558;2022-09-16T13:24:18;99488.94;;;34.08;38.12
41866;BME280;27539;43.222;27.558;2022-09-16T13:26:44;99507.91;;;34.09;37.53
41866;BME280;27539;43.222;27.558;2022-09-16T13:29:37;99486.03;;;34.38;37.32
41866;BME280;27539;43.222;27.558;2022-09-16T13:32:04;99490.69;;;34.59;37.34
41866;BME280;27539;43.222;27.558;2022-09-16T13:34:30;99491.75;;;34.42;37.33
41866;BME280;27539;43.222;27.558;2022-09-16T13:36:55;99474.81;;;34.17;36.93
41866;BME280;27539;43.222;27.558;2022-09-16T13:39:33;99484.34;;;34.14;37.53
41866;BME280;27539;43.222;27.558;2022-09-16T13:42:19;99494.88;;;33.93;37.89
41866;BME280;27539;43.222;27.558;2022-09-16T13:44:45;99490.13;;;34.14;37.03
41866;BME280;27539;43.222;27.558;2022-09-16T13:54:55;99483.63;;;34.03;37.97
41866;BME280;27539;43.222;27.558;2022-09-16T14:00:21;99450.59;;;33.42;38.81
41866;BME280;27539;43.222;27.558;2022-09-16T14:11:29;99483.28;;;32.87;39.76
41866;BME280;27539;43.222;27.558;2022-09-16T14:14:09;99449.75;;;32.66;40.87
41866;BME280;27539;43.222;27.558;2022-09-16T14:16:39;99470.97;;;32.83;40.90
41866;BME280;27539;43.222;27.558;2022-09-16T14:19:26;99479.28;;;32.74;40.92
41866;BME280;27539;43.222;27.558;2022-09-16T14:22:01;99469.94;;;32.59;41.30
41866;BME280;27539;43.222;27.558;2022-09-16T14:24:39;99437.34;;;32.20;41.67
41866;BME280;27539;43.222;27.558;2022-09-16T14:27:16;99421.84;;;31.93;41.24
41866;BME280;27539;43.222;27.558;2022-09-16T14:29:55;99434.22;;;31.82;42.20
41866;BME280;27539;43.222;27.558;2022-09-16T14:32:23;99458.03;;;31.86;42.46
41866;BME280;27539;43.222;27.558;2022-09-16T14:34:50;99455.53;;;31.92;42.74
41866;BME280;27539;43.222;27.558;2022-09-16T14:37:18;99433.50;;;31.64;43.08
41866;BME280;27539;43.222;27.558;2022-09-16T14:39:45;99456.06;;;31.69;43.35
41866;BME280;27539;43.222;27.558;2022-09-16T14:42:18;99461.53;;;31.46;44.13
41866;BME280;27539;43.222;27.558;2022-09-16T14:44:54;99436.94;;;31.23;44.08
41866;BME280;27539;43.222;27.558;2022-09-16T14:47:28;99447.66;;;30.94;43.87
41866;BME280;27539;43.222;27.558;2022-09-16T14:50:00;99493.59;;;31.05;44.73
41866;BME280;27539;43.222;27.558;2022-09-16T14:52:31;99537.50;;;30.94;45.39
41866;BME280;27539;43.222;27.558;2022-09-16T14:54:57;99575.59;;;30.70;46.38
41866;BME280;27539;43.222;27.558;2022-09-16T14:57:25;99638.31;;;30.53;47.37
41866;BME280;27539;43.222;27.558;2022-09-16T14:59:53;99670.91;;;30.13;66.80
41866;BME280;27539;43.222;27.558;2022-09-16T15:05:20;99699.59;;;27.82;100.00
41866;BME280;27539;43.222;27.558;2022-09-16T15:07:47;99696.50;;;26.20;100.00
41866;BME280;27539;43.222;27.558;2022-09-16T15:10:26;99609.69;;;25.79;100.00
41866;BME280;27539;43.222;27.558;2022-09-16T15:12:56;99609.66;;;25.24;100.00
41866;BME280;27539;43.222;27.558;2022-09-16T15:15:25;99588.44;;;24.90;100.00
41866;BME280;27539;43.222;27.558;2022-09-16T15:18:01;99647.66;;;25.32;100.00
41866;BME280;27539;43.222;27.558;2022-09-16T15:20:33;99562.28;;;24.84;100.00
41866;BME280;27539;43.222;27.558;2022-09-16T15:23:00;99621.94;;;24.96;100.00
41866;BME280;27539;43.222;27.558;2022-09-16T15:25:31;99618.63;;;24.94;100.00
41866;BME280;27539;43.222;27.558;2022-09-16T15:28:13;99625.44;;;25.06;100.00
41866;BME280;27539;43.222;27.558;2022-09-16T15:30:52;99628.25;;;24.90;100.00
41866;BME280;27539;43.222;27.558;2022-09-16T15:33:33;99630.75;;;24.91;100.00
41866;BME280;27539;43.222;27.558;2022-09-16T15:35:59;99633.59;;;24.91;100.00
41866;BME280;27539;43.222;27.558;2022-09-16T15:38:26;99626.72;;;25.24;100.00
41866;BME280;27539;43.222;27.558;2022-09-16T15:41:09;99603.78;;;25.17;100.00
41866;BME280;27539;43.222;27.558;2022-09-16T15:43:46;99625.41;;;25.53;100.00
41866;BME280;27539;43.222;27.558;2022-09-16T15:46:22;99628.50;;;25.64;100.00
41866;BME280;27539;43.222;27.558;2022-09-16T15:48:52;99630.88;;;25.62;100.00
41866;BME280;27539;43.222;27.558;2022-09-16T15:51:38;99634.72;;;25.70;100.00
41866;BME280;27539;43.222;27.558;2022-09-16T15:57:21;99631.78;;;25.66;100.00
41866;BME280;27539;43.222;27.558;2022-09-16T16:00:04;99627.50;;;25.56;100.00
41866;BME280;27539;43.222;27.558;2022-09-16T16:02:52;99617.38;;;25.59;100.00
41866;BME280;27539;43.222;27.558;2022-09-16T16:05:24;99579.22;;;25.44;100.00
41866;BME280;27539;43.222;27.558;2022-09-16T16:08:00;99584.78;;;25.56;100.00
41866;BME280;27539;43.222;27.558;2022-09-16T16:10:31;99607.16;;;25.58;100.00
41866;BME280;27539;43.222;27.558;2022-09-16T16:12:59;99612.06;;;25.57;100.00
41866;BME280;27539;43.222;27.558;2022-09-16T16:15:33;99625.97;;;25.78;100.00
41866;BME280;27539;43.222;27.558;2022-09-16T16:18:02;99583.38;;;25.66;100.00
41866;BME280;27539;43.222;27.558;2022-09-16T16:20:31;99615.91;;;25.84;100.00
41866;BME280;27539;43.222;27.558;2022-09-16T16:22:58;99613.38;;;25.79;100.00
41866;BME280;27539;43.222;27.558;2022-09-16T16:25:24;99637.03;;;25.64;100.00
41866;BME280;27539;43.222;27.558;2022-09-16T16:27:50;99641.59;;;25.33;100.00
41866;BME280;27539;43.222;27.558;2022-09-16T16:30:15;99646.91;;;25.51;100.00
41866;BME280;27539;43.222;27.558;2022-09-16T16:32:41;99633.66;;;25.58;100.00
41866;BME280;27539;43.222;27.558;2022-09-16T16:35:07;99630.25;;;25.53;100.00
41866;BME280;27539;43.222;27.558;2022-09-16T16:37:33;99613.72;;;25.42;100.00
41866;BME280;27539;43.222;27.558;2022-09-16T16:39:58;99658.00;;;24.92;100.00
41866;BME280;27539;43.222;27.558;2022-09-16T16:42:24;99658.81;;;24.93;100.00
41866;BME280;27539;43.222;27.558;2022-09-16T16:44:49;99684.19;;;25.14;100.00
41866;BME280;27539;43.222;27.558;2022-09-16T16:47:15;99687.25;;;25.21;100.00
41866;BME280;27539;43.222;27.558;2022-09-16T16:49:41;99684.00;;;25.22;100.00
41866;BME280;27539;43.222;27.558;2022-09-16T16:52:07;99673.19;;;25.28;100.00
41866;BME280;27539;43.222;27.558;2022-09-16T16:54:34;99671.78;;;25.38;100.00
41866;BME280;27539;43.222;27.558;2022-09-16T16:56:59;99644.63;;;25.25;100.00
41866;BME280;27539;43.222;27.558;2022-09-16T16:59:25;99624.88;;;25.16;100.00
41866;BME280;27539;43.222;27.558;2022-09-16T17:01:55;99629.00;;;25.34;100.00